Time;durP1;ratioP1;P1;durP2;ratioP2;P2;SDS_P1;SDS_P2;PMS_P1;PMS_P2;Temp;Humidity;BMP_temperature;BMP_pressure;BME280_temperature;BME280_humidity;BME280_pressure;Samples;Min_cycle;Max_cycle;Signal;HPM_P1;HPM_P2
2022/05/19 00:01:18;;;;;;;9.63;3.72;;;9.70;70.30;;;;;;5006812;28;20070;-79
2022/05/19 00:03:44;;;;;;;5.65;3.95;;;9.80;70.10;;;;;;4995821;28;20030;-79
2022/05/19 00:06:11;;;;;;;5.35;3.85;;;9.80;70.10;;;;;;4996282;28;20032;-79
2022/05/19 00:08:37;;;;;;;6.35;3.60;;;9.80;70.00;;;;;;5000622;28;20435;-81
2022/05/19 00:11:07;;;;;;;7.38;3.70;;;9.70;70.10;;;;;;4996550;28;20045;-80
2022/05/19 00:13:34;;;;;;;5.20;3.25;;;9.70;70.10;;;;;;4995652;28;20468;-79
2022/05/19 00:16:00;;;;;;;3.47;3.17;;;9.70;70.20;;;;;;4995593;28;20103;-80
2022/05/19 00:18:26;;;;;;;8.63;4.00;;;9.80;70.20;;;;;;4995495;28;20026;-79
2022/05/19 00:20:53;;;;;;;3.63;2.72;;;9.80;70.10;;;;;;4978206;28;20042;-81
2022/05/19 00:23:19;;;;;;;5.20;3.40;;;9.90;70.00;;;;;;4995331;28;20559;-80
2022/05/19 00:25:45;;;;;;;4.25;3.00;;;10.00;69.90;;;;;;4995431;28;20066;-80
2022/05/19 00:28:11;;;;;;;4.07;2.70;;;10.00;69.80;;;;;;4994847;28;20034;-80
2022/05/19 00:30:38;;;;;;;3.78;2.72;;;10.00;69.80;;;;;;4994415;28;20114;-80
2022/05/19 00:33:04;;;;;;;5.03;3.23;;;10.10;69.60;;;;;;4995220;28;20112;-76
2022/05/19 00:35:30;;;;;;;5.25;3.30;;;10.00;69.60;;;;;;4977523;28;20034;-79
2022/05/19 00:37:56;;;;;;;4.28;2.67;;;10.10;69.90;;;;;;4995203;28;20113;-80
2022/05/19 00:40:24;;;;;;;7.35;3.45;;;10.10;69.70;;;;;;4995191;28;20177;-79
2022/05/19 00:42:51;;;;;;;4.25;2.72;;;10.10;69.70;;;;;;4977429;28;20888;-78
2022/05/19 00:45:23;;;;;;;5.03;2.63;;;10.10;69.50;;;;;;4977442;28;20023;-78
2022/05/19 00:47:51;;;;;;;4.85;3.20;;;10.10;69.40;;;;;;4994946;28;20093;-80
2022/05/19 00:50:28;;;;;;;3.65;2.80;;;10.10;69.50;;;;;;4996651;28;20029;-78
2022/05/19 00:53:09;;;;;;;4.10;3.03;;;10.20;69.50;;;;;;5014267;28;20100;-78
2022/05/19 00:55:43;;;;;;;7.40;3.38;;;10.20;69.30;;;;;;5014482;28;20022;-78
2022/05/19 00:58:21;;;;;;;3.65;2.88;;;10.20;69.40;;;;;;5015327;28;20033;-80
2022/05/19 01:00:46;;;;;;;4.25;3.10;;;10.10;69.60;;;;;;5011332;28;20018;-77
2022/05/19 01:03:15;;;;;;;5.03;3.75;;;10.00;69.80;;;;;;4995640;28;20041;-79
2022/05/19 01:05:52;;;;;;;5.43;3.03;;;10.00;69.90;;;;;;4995736;28;20026;-79
2022/05/19 01:08:30;;;;;;;6.38;3.20;;;9.90;70.30;;;;;;5000244;28;20065;-78
2022/05/19 01:10:57;;;;;;;3.72;3.05;;;9.80;70.70;;;;;;5006631;28;20502;-78
2022/05/19 01:13:29;;;;;;;4.60;3.45;;;9.70;70.80;;;;;;4995186;28;20022;-79
2022/05/19 01:15:55;;;;;;;4.00;3.05;;;9.60;71.20;;;;;;4995453;28;20034;-79
2022/05/19 01:18:25;;;;;;;5.78;3.65;;;9.60;71.70;;;;;;4994723;28;20435;-79
2022/05/19 01:20:52;;;;;;;4.03;2.67;;;9.60;71.90;;;;;;4994628;28;20595;-78
2022/05/19 01:23:39;;;;;;;4.60;2.78;;;9.60;71.90;;;;;;4994535;28;20415;-78
2022/05/19 01:26:38;;;;;;;4.63;3.80;;;9.60;71.80;;;;;;4994605;28;20019;-79
2022/05/19 01:29:04;;;;;;;4.88;3.22;;;9.70;71.70;;;;;;4994171;28;20511;-78
2022/05/19 01:31:35;;;;;;;4.15;3.15;;;9.70;71.60;;;;;;4993866;28;20042;-79
2022/05/19 01:34:03;;;;;;;4.07;2.88;;;9.80;71.60;;;;;;4994170;28;20487;-79
2022/05/19 01:36:29;;;;;;;4.93;3.30;;;9.80;71.60;;;;;;4995219;28;20026;-79
2022/05/19 01:39:04;;;;;;;5.22;2.78;;;9.80;71.50;;;;;;4994410;28;20034;-78
2022/05/19 01:41:51;;;;;;;5.60;3.20;;;9.90;71.50;;;;;;4994289;28;20026;-77
2022/05/19 01:44:28;;;;;;;6.00;3.58;;;9.90;71.40;;;;;;4979383;28;20046;-78
2022/05/19 01:47:08;;;;;;;5.40;3.10;;;9.90;71.50;;;;;;4997747;28;20085;-79
2022/05/19 01:49:45;;;;;;;5.55;2.90;;;9.90;71.60;;;;;;4993633;28;20080;-79
2022/05/19 01:52:52;;;;;;;6.78;2.65;;;9.90;71.50;;;;;;4993648;28;20026;-79
2022/05/19 01:55:34;;;;;;;3.03;2.72;;;9.90;71.40;;;;;;4895889;29;20029;-77
2022/05/19 01:58:03;;;;;;;3.80;2.83;;;9.90;71.60;;;;;;4895674;29;20526;-78
2022/05/19 02:00:30;;;;;;;3.60;2.53;;;9.90;71.90;;;;;;4896698;29;20045;-79
2022/05/19 02:03:19;;;;;;;3.72;3.05;;;9.90;72.00;;;;;;4911603;29;20123;-77
2022/05/19 02:06:09;;;;;;;4.03;3.10;;;10.00;72.10;;;;;;4915127;29;20128;-80
2022/05/19 02:08:53;;;;;;;5.35;3.47;;;10.00;71.80;;;;;;4914829;29;20036;-78
2022/05/19 02:11:29;;;;;;;5.55;2.47;;;10.00;71.90;;;;;;4914671;29;20048;-79
2022/05/19 02:13:59;;;;;;;3.92;2.92;;;10.00;71.70;;;;;;4914523;29;20581;-79
2022/05/19 02:16:30;;;;;;;3.17;2.60;;;10.10;71.70;;;;;;4914523;29;20443;-78
2022/05/19 02:18:56;;;;;;;4.20;2.90;;;10.10;71.60;;;;;;4899243;29;20127;-79
2022/05/19 02:21:22;;;;;;;5.78;2.83;;;10.10;71.60;;;;;;4900308;29;20028;-80
2022/05/19 02:23:48;;;;;;;3.22;2.53;;;10.20;71.60;;;;;;4915956;29;20130;-78
2022/05/19 02:26:14;;;;;;;4.55;3.75;;;10.20;71.50;;;;;;4961191;28;20042;-78
2022/05/19 02:28:52;;;;;;;3.55;2.88;;;10.30;71.50;;;;;;5012637;28;20037;-79
2022/05/19 02:31:17;;;;;;;4.35;3.00;;;10.30;71.50;;;;;;5013108;28;20058;-80
2022/05/19 02:33:43;;;;;;;7.88;2.80;;;10.30;71.30;;;;;;5013320;28;20026;-79
2022/05/19 02:36:10;;;;;;;4.43;2.83;;;10.30;71.20;;;;;;5012682;28;20416;-80
2022/05/19 02:38:37;;;;;;;6.22;3.00;;;10.30;71.10;;;;;;5012505;28;20106;-79
2022/05/19 02:41:03;;;;;;;3.80;2.60;;;10.40;71.30;;;;;;5003018;28;20072;-77
2022/05/19 02:43:28;;;;;;;4.57;2.33;;;10.40;71.40;;;;;;5012443;28;20065;-77
2022/05/19 02:45:54;;;;;;;3.70;2.72;;;10.30;71.20;;;;;;5012535;28;20077;-77
2022/05/19 02:48:20;;;;;;;3.08;2.63;;;10.30;71.60;;;;;;5007262;28;20030;-77
2022/05/19 02:50:48;;;;;;;3.90;3.28;;;10.30;71.70;;;;;;4992626;28;20026;-78
2022/05/19 02:53:14;;;;;;;;;;;10.30;72.00;;;;;;4992967;28;20023;-77
2022/05/19 02:55:41;;;;;;;3.35;2.42;;;10.30;71.60;;;;;;4991459;28;19912;-76
2022/05/19 02:58:08;;;;;;;5.40;3.00;;;10.30;71.80;;;;;;4992823;28;20398;-78
2022/05/19 03:00:35;;;;;;;6.67;2.87;;;10.30;71.90;;;;;;4992670;28;20038;-79
2022/05/19 03:03:00;;;;;;;4.63;2.97;;;10.40;71.80;;;;;;4992843;28;20496;-79
2022/05/19 03:05:29;;;;;;;4.05;2.75;;;10.50;71.50;;;;;;4992789;28;20106;-78
2022/05/19 03:07:55;;;;;;;5.07;2.83;;;10.60;71.70;;;;;;4993169;28;20033;-79
2022/05/19 03:10:22;;;;;;;3.83;2.92;;;10.60;71.30;;;;;;4994325;28;20022;-77
2022/05/19 03:12:48;;;;;;;6.53;3.20;;;10.70;70.80;;;;;;4975131;28;20037;-78
2022/05/19 03:15:14;;;;;;;5.10;2.80;;;10.80;70.60;;;;;;4992486;28;20268;-79
2022/05/19 03:17:40;;;;;;;6.35;3.08;;;10.90;70.40;;;;;;4974911;28;20522;-78
2022/05/19 03:20:07;;;;;;;8.10;2.90;;;10.90;70.30;;;;;;4992378;28;20388;-77
2022/05/19 03:22:34;;;;;;;4.18;2.45;;;11.00;70.30;;;;;;4992402;28;20399;-78
2022/05/19 03:25:00;;;;;;;3.85;2.47;;;11.00;70.10;;;;;;4992351;28;20031;-79
2022/05/19 03:27:25;;;;;;;4.22;2.60;;;11.00;70.10;;;;;;4992287;28;20456;-79
2022/05/19 03:29:53;;;;;;;6.25;3.20;;;11.00;69.90;;;;;;4992329;28;20061;-80
2022/05/19 03:32:19;;;;;;;8.43;3.33;;;11.10;70.00;;;;;;4992531;28;20120;-78
2022/05/19 03:34:45;;;;;;;6.87;3.33;;;11.20;70.10;;;;;;4996607;28;20035;-79
2022/05/19 03:37:12;;;;;;;6.30;2.95;;;11.20;69.80;;;;;;4992426;28;20268;-78
2022/05/19 03:39:40;;;;;;;6.53;2.88;;;11.30;69.40;;;;;;4992262;28;20018;-80
2022/05/19 03:42:07;;;;;;;5.55;3.25;;;11.30;69.30;;;;;;4992170;28;20043;-79
2022/05/19 03:44:34;;;;;;;3.60;2.97;;;11.30;69.70;;;;;;4992200;28;20023;-77
2022/05/19 03:47:00;;;;;;;4.97;3.20;;;11.40;69.70;;;;;;4991940;28;20042;-79
2022/05/19 03:49:26;;;;;;;3.95;2.58;;;11.40;69.70;;;;;;4992340;28;20026;-78
2022/05/19 03:51:51;;;;;;;6.43;3.42;;;11.40;69.20;;;;;;4992136;28;20032;-79
2022/05/19 03:54:17;;;;;;;3.83;3.10;;;11.50;69.00;;;;;;4992808;28;20073;-80
2022/05/19 03:56:44;;;;;;;3.53;2.78;;;11.60;68.70;;;;;;4996760;28;20173;-76
2022/05/19 03:59:09;;;;;;;4.03;2.40;;;11.60;68.20;;;;;;4993504;28;20031;-79
2022/05/19 04:01:36;;;;;;;4.25;2.92;;;11.60;68.30;;;;;;4992177;28;20411;-79
2022/05/19 04:04:03;;;;;;;5.60;2.40;;;11.60;68.50;;;;;;4975579;28;20066;-80
2022/05/19 04:06:29;;;;;;;2.42;2.22;;;11.50;68.40;;;;;;4995539;28;20403;-79
2022/05/19 04:08:55;;;;;;;5.47;2.95;;;11.50;68.70;;;;;;4995509;28;20022;-78
2022/05/19 04:11:21;;;;;;;6.00;2.53;;;11.50;68.60;;;;;;4995743;28;20029;-79
2022/05/19 04:13:46;;;;;;;4.50;3.10;;;11.50;68.90;;;;;;4995581;28;20011;-78
2022/05/19 04:16:13;;;;;;;4.63;3.38;;;11.60;69.30;;;;;;4995361;28;20530;-78
2022/05/19 04:18:40;;;;;;;6.65;2.85;;;11.60;69.60;;;;;;4995232;28;20026;-78
2022/05/19 04:21:06;;;;;;;4.05;2.67;;;11.50;71.50;;;;;;4995320;28;20444;-78
2022/05/19 04:23:32;;;;;;;5.13;2.60;;;11.40;71.30;;;;;;4995228;28;20088;-80
2022/05/19 04:25:58;;;;;;;2.45;2.25;;;11.30;71.60;;;;;;4960943;28;20109;-79
2022/05/19 04:28:24;;;;;;;5.90;3.42;;;11.40;72.00;;;;;;4995138;28;20133;-81
2022/05/19 04:30:49;;;;;;;7.00;3.42;;;11.60;71.70;;;;;;4995104;28;20121;-78
2022/05/19 04:33:15;;;;;;;3.03;2.58;;;11.70;71.40;;;;;;4995156;28;20027;-78
2022/05/19 04:35:41;;;;;;;10.20;3.60;;;11.80;71.10;;;;;;4977873;28;20022;-79
2022/05/19 04:38:09;;;;;;;8.23;3.58;;;11.90;70.70;;;;;;4995159;28;20049;-78
2022/05/19 04:40:40;;;;;;;6.32;3.30;;;12.00;70.20;;;;;;4995570;28;20045;-80
2022/05/19 04:43:06;;;;;;;5.20;3.08;;;12.00;69.80;;;;;;4995146;28;20034;-79
2022/05/19 04:45:32;;;;;;;3.90;3.30;;;12.00;70.00;;;;;;5011605;28;20124;-77
2022/05/19 04:47:59;;;;;;;3.97;3.13;;;11.80;71.20;;;;;;4998379;28;20498;-80
2022/05/19 04:50:25;;;;;;;6.57;2.90;;;11.80;71.20;;;;;;4995430;28;20108;-81
2022/05/19 04:52:50;;;;;;;4.65;2.63;;;11.70;71.20;;;;;;4994560;28;20034;-78
2022/05/19 04:55:16;;;;;;;3.97;2.72;;;11.70;71.40;;;;;;4995341;28;20025;-79
2022/05/19 04:57:43;;;;;;;6.90;3.22;;;11.60;72.70;;;;;;4994867;28;20034;-81
2022/05/19 05:00:12;;;;;;;3.87;2.80;;;11.60;72.70;;;;;;4995142;28;20033;-77
2022/05/19 05:02:39;;;;;;;5.50;3.33;;;11.60;72.00;;;;;;4994713;28;20644;-79
2022/05/19 05:05:06;;;;;;;8.13;3.13;;;11.60;72.10;;;;;;4994958;28;20034;-80
2022/05/19 05:07:32;;;;;;;6.32;3.20;;;11.60;72.90;;;;;;4996077;28;20511;-79
2022/05/19 05:09:57;;;;;;;6.90;3.45;;;11.60;74.00;;;;;;4994573;28;20031;-80
2022/05/19 05:12:23;;;;;;;6.65;3.80;;;11.50;75.20;;;;;;4994507;28;20891;-80
2022/05/19 05:14:49;;;;;;;10.02;4.00;;;11.50;76.60;;;;;;4994509;28;20463;-78
2022/05/19 05:17:16;;;;;;;6.80;3.45;;;11.60;76.80;;;;;;4995102;28;20033;-77
2022/05/19 05:19:42;;;;;;;4.10;2.72;;;11.70;77.70;;;;;;4994901;28;20023;-78
2022/05/19 05:22:08;;;;;;;6.38;3.70;;;11.70;77.40;;;;;;4994268;28;20030;-77
2022/05/19 05:24:34;;;;;;;6.03;3.42;;;11.60;77.70;;;;;;4976847;28;20030;-79
2022/05/19 05:27:03;;;;;;;9.80;3.85;;;11.60;78.00;;;;;;4995475;28;20109;-78
2022/05/19 05:29:28;;;;;;;6.28;3.10;;;11.60;78.30;;;;;;4995307;28;20495;-81
2022/05/19 05:31:54;;;;;;;6.47;3.95;;;11.70;77.20;;;;;;4994515;28;20129;-78
2022/05/19 05:34:20;;;;;;;5.30;3.72;;;11.70;76.80;;;;;;4976734;28;20112;-78
2022/05/19 05:36:46;;;;;;;3.90;3.22;;;11.80;76.20;;;;;;4994220;28;20653;-77
2022/05/19 05:39:12;;;;;;;3.10;2.78;;;11.80;75.90;;;;;;4994114;28;20077;-78
2022/05/19 05:41:38;;;;;;;3.47;2.92;;;11.70;75.50;;;;;;4993716;28;20030;-78
2022/05/19 05:44:03;;;;;;;5.78;3.28;;;11.70;75.40;;;;;;4993662;28;20068;-78
2022/05/19 05:46:29;;;;;;;5.68;2.75;;;11.70;75.50;;;;;;4993522;28;20023;-79
2022/05/19 05:48:55;;;;;;;6.13;3.40;;;11.60;75.50;;;;;;4993737;28;20097;-76
2022/05/19 05:51:21;;;;;;;3.30;2.90;;;11.50;75.60;;;;;;4978148;28;20061;-80
2022/05/19 05:53:47;;;;;;;4.25;2.88;;;11.50;76.60;;;;;;4996806;28;20054;-79
2022/05/19 05:56:18;;;;;;;3.33;2.47;;;11.40;76.30;;;;;;4995138;28;20022;-78
2022/05/19 05:58:43;;;;;;;5.60;3.42;;;11.40;76.20;;;;;;4998050;28;20018;-81
2022/05/19 06:01:11;;;;;;;4.55;3.05;;;11.40;76.40;;;;;;4993898;28;20361;-79
2022/05/19 06:03:38;;;;;;;5.72;3.42;;;11.40;76.30;;;;;;4993472;28;20433;-78
2022/05/19 06:06:04;;;;;;;4.03;3.20;;;11.40;76.90;;;;;;4993130;28;20026;-79
2022/05/19 06:08:31;;;;;;;3.50;3.00;;;11.40;77.20;;;;;;4993011;28;20042;-78
2022/05/19 06:10:57;;;;;;;3.77;3.10;;;11.30;77.00;;;;;;4993137;28;20054;-78
2022/05/19 06:13:24;;;;;;;4.07;3.25;;;11.40;76.60;;;;;;4993321;28;20022;-77
2022/05/19 06:15:50;;;;;;;5.63;2.75;;;11.30;77.00;;;;;;4996571;28;20070;-78
2022/05/19 06:18:15;;;;;;;4.03;3.63;;;11.20;77.20;;;;;;4991971;28;20583;-78
2022/05/19 06:20:41;;;;;;;7.82;3.30;;;11.20;78.00;;;;;;4992499;28;20014;-77
2022/05/19 06:23:08;;;;;;;6.55;3.95;;;11.20;78.30;;;;;;4992198;28;20045;-79
2022/05/19 06:25:34;;;;;;;6.13;3.78;;;11.20;78.20;;;;;;4992385;28;20351;-77
2022/05/19 06:28:07;;;;;;;4.28;3.88;;;11.40;78.80;;;;;;5004917;28;20034;-82
2022/05/19 06:30:33;;;;;;;6.22;3.83;;;11.60;79.10;;;;;;4990933;28;20034;-80
2022/05/19 06:33:09;;;;;;;3.92;2.95;;;11.80;78.30;;;;;;4993151;28;20128;-80
2022/05/19 06:35:36;;;;;;;9.77;3.63;;;12.00;77.20;;;;;;4997258;28;20030;-79
2022/05/19 06:38:04;;;;;;;5.70;4.03;;;12.10;77.50;;;;;;4992826;28;20041;-79
2022/05/19 06:40:31;;;;;;;7.88;3.95;;;12.10;77.20;;;;;;4992797;28;20023;-81
2022/05/19 06:42:57;;;;;;;10.98;3.42;;;12.30;77.70;;;;;;4992821;28;20042;-80
2022/05/19 06:45:25;;;;;;;8.07;3.58;;;12.60;76.70;;;;;;4992664;28;20027;-80
2022/05/19 06:47:51;;;;;;;6.00;3.78;;;12.70;75.10;;;;;;4975384;28;20444;-80
2022/05/19 06:50:18;;;;;;;4.22;3.72;;;12.60;74.50;;;;;;4992759;28;20054;-81
2022/05/19 06:52:53;;;;;;;4.97;3.70;;;12.50;74.90;;;;;;4992554;28;20026;-82
2022/05/19 06:55:22;;;;;;;3.45;2.72;;;12.50;75.00;;;;;;4975293;28;20813;-79
2022/05/19 06:57:48;;;;;;;5.60;3.40;;;12.50;74.80;;;;;;4992531;28;20031;-79
2022/05/19 07:00:17;;;;;;;8.73;3.78;;;12.30;75.30;;;;;;4975186;28;20448;-81
2022/05/19 07:02:45;;;;;;;5.60;3.38;;;12.40;75.00;;;;;;4992437;28;20111;-80
2022/05/19 07:05:12;;;;;;;6.43;4.10;;;12.50;75.10;;;;;;4992787;28;20025;-81
2022/05/19 07:07:38;;;;;;;6.03;4.00;;;12.50;75.20;;;;;;4992565;28;20101;-80
2022/05/19 07:10:05;;;;;;;4.43;3.72;;;12.50;74.50;;;;;;4997352;28;20034;-79
2022/05/19 07:12:33;;;;;;;3.97;3.50;;;12.30;75.10;;;;;;4994175;28;20050;-79
2022/05/19 07:15:00;;;;;;;14.75;4.53;;;12.20;75.80;;;;;;4992496;28;20086;-80
2022/05/19 07:17:26;;;;;;;8.85;4.10;;;12.30;76.70;;;;;;4993367;28;20392;-81
2022/05/19 07:22:36;;;;;;;6.68;3.53;;;12.40;76.10;;;;;;4992803;28;20049;-80
2022/05/19 07:25:06;;;;;;;6.97;4.45;;;12.10;76.60;;;;;;5005226;28;20025;-80
2022/05/19 07:27:32;;;;;;;6.25;4.53;;;11.90;78.20;;;;;;5016248;28;20022;-80
2022/05/19 07:29:59;;;;;;;8.15;4.57;;;11.90;78.30;;;;;;5013194;28;20037;-80
2022/05/19 07:32:25;;;;;;;5.05;4.35;;;11.90;78.10;;;;;;5012184;28;20602;-80
2022/05/19 07:34:52;;;;;;;13.15;4.97;;;12.00;79.10;;;;;;5012065;28;20038;-81
2022/05/19 07:37:18;;;;;;;6.83;4.30;;;12.30;78.80;;;;;;4994531;28;20026;-81
2022/05/19 07:39:44;;;;;;;6.63;3.85;;;12.40;77.50;;;;;;5015592;28;20045;-80
2022/05/19 07:42:10;;;;;;;7.85;4.63;;;12.40;76.80;;;;;;5009640;28;20453;-78
2022/05/19 07:44:36;;;;;;;5.93;4.10;;;12.30;77.10;;;;;;4996028;28;20030;-81
2022/05/19 07:47:01;;;;;;;8.90;4.50;;;12.30;77.80;;;;;;4996341;28;20391;-79
2022/05/19 07:49:27;;;;;;;10.57;4.65;;;12.30;78.40;;;;;;5000171;28;20110;-79
2022/05/19 07:51:53;;;;;;;10.57;4.22;;;12.30;79.30;;;;;;5000308;28;20030;-81
2022/05/19 07:54:26;;;;;;;6.80;4.70;;;12.20;79.00;;;;;;4996558;28;20023;-81
2022/05/19 07:56:52;;;;;;;8.88;4.30;;;12.20;79.70;;;;;;4978907;28;20493;-81
2022/05/19 07:59:19;;;;;;;14.10;5.50;;;12.20;80.00;;;;;;4996223;28;20390;-81
2022/05/19 08:01:46;;;;;;;6.80;5.32;;;12.30;80.70;;;;;;4995939;28;20045;-80
2022/05/19 08:04:13;;;;;;;5.83;4.70;;;12.20;82.00;;;;;;4996199;28;20030;-81
2022/05/19 08:06:40;;;;;;;5.38;4.28;;;12.20;81.10;;;;;;4995952;28;21060;-80
2022/05/19 08:11:52;;;;;;;9.77;4.88;;;12.10;81.30;;;;;;4995905;28;20053;-80
2022/05/19 08:17:03;;;;;;;11.57;5.78;;;12.00;82.20;;;;;;5015457;28;20068;-80
2022/05/19 08:19:29;;;;;;;10.27;4.63;;;12.00;82.00;;;;;;5015187;28;20030;-79
2022/05/19 08:21:56;;;;;;;7.93;4.07;;;12.20;82.00;;;;;;5019918;28;20048;-80
2022/05/19 08:24:24;;;;;;;10.60;5.68;;;12.30;79.80;;;;;;5018203;28;20026;-82
2022/05/19 08:26:53;;;;;;;6.13;4.22;;;12.40;81.30;;;;;;5014841;28;20018;-80
2022/05/19 08:29:19;;;;;;;7.53;4.10;;;13.00;81.40;;;;;;5015007;28;20711;-80
2022/05/19 08:31:46;;;;;;;9.23;3.58;;;13.90;77.70;;;;;;5010568;28;20408;-81
2022/05/19 08:34:13;;;;;;;7.50;3.85;;;14.80;72.10;;;;;;4998591;28;20034;-79
2022/05/19 08:36:40;;;;;;;;;;;15.90;70.00;;;;;;4999477;28;20034;-79
2022/05/19 08:39:05;;;;;;;7.50;4.30;;;17.10;68.40;;;;;;4996566;28;20279;-80
2022/05/19 08:41:38;;;;;;;4.38;3.05;;;18.10;61.80;;;;;;4995008;28;20034;-79
2022/05/19 08:44:08;;;;;;;9.70;3.90;;;18.40;59.40;;;;;;4995132;28;20106;-80
2022/05/19 08:46:40;;;;;;;5.60;3.17;;;18.30;60.30;;;;;;4994641;28;20023;-81
2022/05/19 08:49:41;;;;;;;5.78;3.83;;;17.70;57.10;;;;;;4995029;28;20420;-81
2022/05/19 08:52:12;;;;;;;5.47;3.83;;;17.00;59.60;;;;;;4989864;28;20065;-79
2022/05/19 08:54:43;;;;;;;3.95;3.00;;;16.30;61.10;;;;;;4994710;28;20022;-81
2022/05/19 08:57:24;;;;;;;4.93;3.72;;;15.80;61.40;;;;;;4977416;28;20587;-80
2022/05/19 09:00:04;;;;;;;5.03;3.65;;;15.10;63.80;;;;;;4977443;28;20080;-79
2022/05/19 09:02:44;;;;;;;8.52;4.03;;;14.80;65.70;;;;;;4994594;28;20038;-81
2022/05/19 09:05:27;;;;;;;7.50;3.60;;;14.80;66.50;;;;;;4994886;28;20026;-80
2022/05/19 09:08:21;;;;;;;7.40;5.05;;;15.00;66.40;;;;;;4994144;28;20439;-80
2022/05/19 09:11:02;;;;;;;8.93;4.72;;;15.60;66.00;;;;;;4995448;28;20026;-79
2022/05/19 09:13:37;;;;;;;6.72;4.32;;;16.40;64.40;;;;;;4995488;28;20073;-79
2022/05/19 09:16:26;;;;;;;7.05;3.38;;;17.30;63.30;;;;;;4994317;28;20490;-82
2022/05/19 09:19:36;;;;;;;4.40;3.20;;;18.70;58.40;;;;;;4994376;28;20492;-81
2022/05/19 09:22:12;;;;;;;5.47;3.78;;;20.40;54.40;;;;;;4986104;28;20045;-81
2022/05/19 09:24:39;;;;;;;6.45;2.92;;;20.90;50.50;;;;;;4980779;28;20022;-80
2022/05/19 09:27:05;;;;;;;6.22;3.63;;;20.70;50.00;;;;;;4997723;28;20089;-79
2022/05/19 09:29:41;;;;;;;3.80;3.22;;;19.90;50.70;;;;;;4994682;28;20030;-79
2022/05/19 09:32:31;;;;;;;7.13;3.28;;;19.30;52.00;;;;;;4994695;28;20050;-81
2022/05/19 09:35:14;;;;;;;6.68;3.47;;;19.30;52.40;;;;;;4998711;28;20026;-79
2022/05/19 09:37:43;;;;;;;6.95;3.90;;;19.10;52.60;;;;;;4995135;28;20023;-80
2022/05/19 09:40:12;;;;;;;7.97;3.28;;;19.30;53.40;;;;;;4984821;28;20029;-81
2022/05/19 09:42:53;;;;;;;5.20;2.53;;;19.70;52.40;;;;;;5012447;28;20045;-81
2022/05/19 09:45:27;;;;;;;6.55;3.05;;;20.10;49.90;;;;;;4995852;28;20022;-81
2022/05/19 09:48:05;;;;;;;3.88;2.83;;;19.70;50.80;;;;;;5013871;28;20503;-82
2022/05/19 09:50:40;;;;;;;3.90;2.83;;;20.40;50.30;;;;;;5016035;28;20032;-79
2022/05/19 09:53:12;;;;;;;6.22;2.95;;;20.80;48.30;;;;;;4999671;28;20060;-81
2022/05/19 09:55:42;;;;;;;3.05;2.28;;;20.30;48.00;;;;;;5013585;28;20387;-80
2022/05/19 09:58:15;;;;;;;7.20;3.38;;;19.40;49.60;;;;;;5008603;28;20439;-81
2022/05/19 10:00:49;;;;;;;4.15;2.83;;;19.00;51.50;;;;;;4994199;28;20022;-82
2022/05/19 10:03:41;;;;;;;4.35;3.35;;;18.80;51.90;;;;;;4975975;28;20046;-83
2022/05/19 10:06:20;;;;;;;4.35;3.00;;;19.40;52.80;;;;;;4987543;28;20066;-82
2022/05/19 10:08:47;;;;;;;5.47;2.72;;;20.40;48.50;;;;;;4993727;28;20023;-80
2022/05/19 10:11:13;;;;;;;2.72;1.83;;;21.50;46.90;;;;;;4993765;28;20384;-82
2022/05/19 10:13:44;;;;;;;6.82;1.88;;;22.40;43.70;;;;;;4993578;28;20181;-84
2022/05/19 10:16:34;;;;;;;6.13;2.30;;;22.30;43.10;;;;;;4996989;28;20577;-82
2022/05/19 10:19:35;;;;;;;3.47;1.98;;;22.90;43.50;;;;;;5012760;28;20042;-81
2022/05/19 10:22:34;;;;;;;5.22;2.63;;;24.10;41.70;;;;;;4971456;28;20503;-81
2022/05/19 10:25:03;;;;;;;4.97;1.88;;;24.20;40.40;;;;;;5013070;28;20033;-80
2022/05/19 10:33:13;;;;;;;4.05;2.03;;;19.90;44.90;;;;;;5006909;28;20037;-79
2022/05/19 10:36:17;;;;;;;4.60;2.05;;;18.70;47.00;;;;;;4993486;28;20026;-82
2022/05/19 10:38:55;;;;;;;4.78;2.45;;;18.30;48.80;;;;;;4962757;28;20035;-81
2022/05/19 10:41:24;;;;;;;9.48;2.75;;;18.10;49.60;;;;;;4993360;28;20421;-82
2022/05/19 10:43:55;;;;;;;4.88;1.70;;;18.10;49.90;;;;;;4995056;28;20072;-82
2022/05/19 10:46:27;;;;;;;4.35;2.10;;;18.10;50.10;;;;;;4995856;28;20065;-80
2022/05/19 10:49:00;;;;;;;4.78;2.40;;;18.00;50.00;;;;;;4993123;28;20023;-81
2022/05/19 10:51:34;;;;;;;11.65;2.35;;;17.90;51.40;;;;;;4992210;28;20109;-82
2022/05/19 10:54:22;;;;;;;6.07;2.17;;;17.70;51.10;;;;;;4975491;28;20030;-80
2022/05/19 10:56:54;;;;;;;5.95;2.72;;;17.50;51.40;;;;;;4993144;28;20046;-82
2022/05/19 10:59:45;;;;;;;10.60;2.58;;;17.20;52.40;;;;;;4975544;28;20033;-81
2022/05/19 11:02:26;;;;;;;4.47;2.38;;;16.90;53.30;;;;;;4992643;28;20034;-82
2022/05/19 11:05:01;;;;;;;3.78;2.40;;;16.70;53.70;;;;;;4993219;28;20033;-80
2022/05/19 11:07:49;;;;;;;3.08;2.63;;;16.50;54.10;;;;;;4992432;28;20034;-81
2022/05/19 11:10:32;;;;;;;3.63;2.58;;;16.30;54.40;;;;;;4992933;28;20058;-80
2022/05/19 11:13:14;;;;;;;6.28;2.70;;;16.30;54.30;;;;;;4993436;28;20019;-81
2022/05/19 11:15:48;;;;;;;5.88;1.85;;;16.20;54.20;;;;;;4979578;28;20718;-80
2022/05/19 11:18:22;;;;;;;3.38;1.90;;;16.20;54.20;;;;;;4997254;28;20034;-82
2022/05/19 11:20:54;;;;;;;2.60;1.90;;;16.50;54.10;;;;;;4996864;28;20384;-80
2022/05/19 11:23:36;;;;;;;2.35;1.90;;;16.60;53.40;;;;;;4978561;28;20054;-80
2022/05/19 11:26:25;;;;;;;5.53;2.30;;;16.70;53.90;;;;;;4996519;28;20480;-83
2022/05/19 11:29:07;;;;;;;2.83;2.15;;;16.60;53.50;;;;;;4996543;28;20022;-82
2022/05/19 11:31:50;;;;;;;7.35;2.97;;;16.80;53.10;;;;;;4996354;28;20078;-80
2022/05/19 11:34:26;;;;;;;8.32;2.47;;;16.90;53.60;;;;;;4978549;28;20608;-80
2022/05/19 11:37:04;;;;;;;3.40;2.10;;;16.90;52.80;;;;;;4995994;28;20062;-82
2022/05/19 11:39:42;;;;;;;3.92;1.83;;;16.90;52.90;;;;;;4995712;28;20042;-82
2022/05/19 11:42:38;;;;;;;2.90;1.63;;;16.80;53.00;;;;;;4998405;28;20398;-80
2022/05/19 11:45:11;;;;;;;4.78;2.05;;;16.70;53.10;;;;;;5018298;28;20483;-80
2022/05/19 11:56:21;;;;;;;4.32;2.90;;;17.60;53.10;;;;;;5017299;28;20068;-80
2022/05/19 11:58:48;;;;;;;12.10;2.88;;;17.80;52.50;;;;;;5019500;28;20121;-81
2022/05/19 12:01:18;;;;;;;7.20;2.38;;;17.70;52.40;;;;;;5018029;28;20486;-81
2022/05/19 12:04:02;;;;;;;2.75;2.25;;;17.60;51.80;;;;;;5015813;28;20026;-80
2022/05/19 12:06:34;;;;;;;4.07;2.25;;;17.30;51.80;;;;;;5015382;28;20022;-82
2022/05/19 12:09:34;;;;;;;5.85;2.13;;;17.00;52.30;;;;;;5015427;28;20045;-79
2022/05/19 12:12:18;;;;;;;4.25;2.50;;;16.60;53.30;;;;;;5015055;28;20041;-81
2022/05/19 12:14:50;;;;;;;4.13;2.65;;;16.30;54.30;;;;;;5015428;28;20029;-79
2022/05/19 12:17:31;;;;;;;4.47;2.67;;;16.10;56.20;;;;;;5016351;28;20041;-81
2022/05/19 12:20:02;;;;;;;5.38;2.60;;;15.90;57.40;;;;;;5016776;28;20018;-82
2022/05/19 12:22:35;;;;;;;6.20;2.50;;;15.40;59.90;;;;;;5016144;28;20036;-80
2022/05/19 12:25:01;;;;;;;6.30;3.22;;;15.10;60.20;;;;;;5014206;28;20049;-79
2022/05/19 12:27:38;;;;;;;6.20;3.17;;;15.00;64.10;;;;;;5015190;28;20058;-82
2022/05/19 12:33:09;;;;;;;3.80;2.10;;;14.90;63.50;;;;;;4996077;28;20053;-81
2022/05/19 12:35:35;;;;;;;4.88;2.38;;;14.90;62.20;;;;;;4998296;28;20487;-80
2022/05/19 12:38:05;;;;;;;6.82;3.10;;;15.10;61.40;;;;;;5015172;28;20101;-80
2022/05/19 12:40:54;;;;;;;6.13;2.63;;;15.30;61.60;;;;;;4997492;28;20149;-80
2022/05/19 12:43:21;;;;;;;7.07;2.78;;;15.40;61.10;;;;;;5014706;28;20037;-81
2022/05/19 12:46:33;;;;;;;9.00;3.63;;;15.50;60.10;;;;;;5014710;28;20073;-80
2022/05/19 12:49:19;;;;;;;3.70;1.85;;;15.60;59.40;;;;;;5014553;28;20044;-79
2022/05/19 12:51:47;;;;;;;3.72;1.95;;;15.60;59.10;;;;;;5015696;28;20022;-81
2022/05/19 12:54:14;;;;;;;5.80;2.28;;;15.60;59.30;;;;;;4998747;28;20029;-79
2022/05/19 12:56:40;;;;;;;3.15;2.00;;;15.80;58.00;;;;;;5015740;28;20059;-81
2022/05/19 12:59:26;;;;;;;2.63;2.20;;;16.00;57.50;;;;;;5014608;28;20067;-82
2022/05/19 13:02:03;;;;;;;5.90;2.10;;;16.10;57.30;;;;;;5014350;28;20028;-80
2022/05/19 13:04:29;;;;;;;3.35;1.98;;;16.00;57.30;;;;;;4994914;28;20049;-80
2022/05/19 13:07:11;;;;;;;7.20;2.65;;;15.80;57.80;;;;;;4995233;28;20030;-81
2022/05/19 13:09:37;;;;;;;5.47;2.28;;;15.70;58.60;;;;;;5003011;28;20054;-80
2022/05/19 13:12:19;;;;;;;4.93;2.05;;;15.80;58.30;;;;;;4999208;28;20033;-79
2022/05/19 13:14:52;;;;;;;5.85;2.10;;;15.80;58.20;;;;;;4994503;28;20491;-83
2022/05/19 13:17:45;;;;;;;5.88;2.03;;;15.70;57.90;;;;;;4994891;28;20033;-80
2022/05/19 13:20:21;;;;;;;3.70;2.25;;;15.60;57.90;;;;;;4990360;28;20037;-82
2022/05/19 13:22:53;;;;;;;2.72;1.88;;;15.50;57.90;;;;;;4994542;28;20117;-79
2022/05/19 13:25:19;;;;;;;4.05;1.73;;;15.50;57.90;;;;;;4994541;28;20031;-83
2022/05/19 13:30:46;;;;;;;5.10;2.90;;;15.20;58.60;;;;;;4994549;28;20611;-81
2022/05/19 13:33:30;;;;;;;5.80;2.92;;;15.10;61.10;;;;;;4977214;28;20031;-80
2022/05/19 13:36:08;;;;;;;8.15;3.22;;;14.90;64.50;;;;;;4995030;28;20022;-80
2022/05/19 13:38:35;;;;;;;6.38;3.65;;;14.60;66.40;;;;;;4991405;28;20506;-79